Time;durP1;ratioP1;P1;durP2;ratioP2;P2;SDS_P1;SDS_P2;PMS_P1;PMS_P2;Temp;Humidity;BMP_temperature;BMP_pressure;BME280_temperature;BME280_humidity;BME280_pressure;Samples;Min_cycle;Max_cycle;Signal;HPM_P1;HPM_P2
2022/07/14 00:02:06;;;;;;;5.88;1.10;;;;;;;18.36;88.42;97070.66;5053126;28;20044;-66
2022/07/14 00:04:31;;;;;;;3.58;0.85;;;;;;;18.36;86.39;97070.66;5067857;28;20025;-67
2022/07/14 00:06:57;;;;;;;3.05;0.70;;;;;;;18.24;84.76;97077.47;5067660;28;20416;-66
2022/07/14 00:09:22;;;;;;;2.15;0.80;;;;;;;18.45;86.07;97088.38;5053126;28;20032;-66
2022/07/14 00:11:48;;;;;;;5.13;1.17;;;;;;;18.63;84.99;97085.44;5068024;28;20722;-68
2022/07/14 00:14:13;;;;;;;3.85;1.33;;;;;;;18.93;80.46;97067.34;5049521;28;20071;-66
2022/07/14 00:16:38;;;;;;;3.22;0.88;;;;;;;19.23;77.76;97047.19;5032165;28;20031;-66
2022/07/14 00:19:04;;;;;;;4.60;0.85;;;;;;;19.13;76.95;97036.97;5032066;28;20115;-67
2022/07/14 00:21:29;;;;;;;4.30;0.90;;;;;;;18.67;80.29;97027.16;5031156;28;20504;-67
2022/07/14 00:23:55;;;;;;;2.30;0.65;;;;;;;18.60;75.27;97025.25;5031762;28;20033;-68
2022/07/14 00:26:20;;;;;;;0.80;0.60;;;;;;;18.50;73.96;97028.91;5031282;28;20087;-68
2022/07/14 00:28:45;;;;;;;1.08;0.68;;;;;;;18.45;76.30;97046.78;5032630;28;20028;-66
2022/07/14 00:31:11;;;;;;;2.63;0.70;;;;;;;18.88;76.44;97049.16;5033668;28;20064;-65
2022/07/14 00:33:38;;;;;;;4.18;0.77;;;;;;;19.03;77.10;97057.31;5033464;28;20033;-66
2022/07/14 00:36:05;;;;;;;3.92;0.65;;;;;;;19.10;75.06;97069.16;5030789;28;20075;-66
2022/07/14 00:38:30;;;;;;;3.75;0.90;;;;;;;19.14;75.18;97069.09;5033294;28;20030;-69
2022/07/14 00:40:56;;;;;;;3.78;0.70;;;;;;;19.21;74.36;97071.00;5047368;28;20614;-66
2022/07/14 00:43:21;;;;;;;2.00;0.68;;;;;;;19.38;73.08;97066.44;5040265;28;20404;-66
2022/07/14 00:45:48;;;;;;;4.13;1.10;;;;;;;19.40;72.98;97056.47;5051302;28;20025;-69
2022/07/14 00:48:13;;;;;;;2.25;0.70;;;;;;;19.27;73.10;97059.03;5035529;28;20034;-68
2022/07/14 00:50:41;;;;;;;3.65;0.70;;;;;;;19.16;75.10;97061.16;5032093;28;20047;-70
2022/07/14 00:53:08;;;;;;;3.38;1.17;;;;;;;19.03;77.98;97063.69;5047769;28;20037;-69
2022/07/14 00:55:40;;;;;;;3.67;1.10;;;;;;;19.17;76.92;97071.03;5032139;28;20505;-67
2022/07/14 00:58:06;;;;;;;3.67;1.02;;;;;;;19.26;76.48;97071.31;5032982;28;20501;-69
2022/07/14 01:00:31;;;;;;;2.63;0.60;;;;;;;19.36;75.58;97068.84;5049436;28;20056;-70
2022/07/14 01:02:57;;;;;;;2.28;0.77;;;;;;;19.02;76.62;97056.53;5045778;28;20116;-68
2022/07/14 01:05:23;;;;;;;4.05;0.85;;;;;;;18.38;81.91;97048.84;5053421;28;20559;-68
2022/07/14 01:07:49;;;;;;;6.15;1.17;;;;;;;17.86;85.72;97044.91;5055151;28;20108;-67
2022/07/14 01:10:14;;;;;;;3.70;1.00;;;;;;;17.67;86.99;97048.94;5045844;28;20037;-66
2022/07/14 01:12:45;;;;;;;2.28;0.90;;;;;;;17.79;87.28;97039.38;5040331;28;20032;-67
2022/07/14 01:15:11;;;;;;;4.50;1.40;;;;;;;18.02;85.86;97057.44;5039033;28;20094;-68
2022/07/14 01:17:37;;;;;;;4.70;1.00;;;;;;;17.94;86.59;97057.50;5057358;28;20119;-69
2022/07/14 01:20:06;;;;;;;6.95;0.85;;;;;;;18.28;86.53;97056.84;5050556;28;20076;-67
2022/07/14 01:22:32;;;;;;;2.60;1.00;;;;;;;18.75;83.55;97052.84;5034612;28;20028;-65
2022/07/14 01:24:57;;;;;;;2.92;0.95;;;;;;;18.91;82.76;97045.56;5052481;28;20029;-67
2022/07/14 01:27:22;;;;;;;2.90;0.90;;;;;;;18.91;81.95;97050.31;5051774;28;20033;-68
2022/07/14 01:29:48;;;;;;;3.05;0.75;;;;;;;18.82;80.95;97044.47;5044345;28;20039;-68
2022/07/14 01:32:13;;;;;;;4.22;0.80;;;;;;;18.69;81.52;97039.44;5046186;28;20047;-66
2022/07/14 01:34:39;;;;;;;1.70;0.70;;;;;;;18.24;82.25;97039.47;5047122;28;20022;-67
2022/07/14 01:37:04;;;;;;;6.55;1.10;;;;;;;17.99;86.60;97049.94;5031477;28;20025;-67
2022/07/14 01:39:30;;;;;;;5.78;1.10;;;;;;;18.28;86.33;97045.75;5030540;28;20359;-66
2022/07/14 01:41:55;;;;;;;2.13;0.90;;;;;;;18.29;84.43;97039.03;5047632;28;20033;-66
2022/07/14 01:44:21;;;;;;;2.15;0.93;;;;;;;18.16;81.19;97037.94;5033641;28;20113;-67
2022/07/14 01:46:50;;;;;;;3.20;1.25;;;;;;;17.84;83.13;97035.38;5037959;28;20040;-68
2022/07/14 01:49:15;;;;;;;2.23;0.70;;;;;;;17.87;84.84;97029.84;5044224;28;20030;-66
2022/07/14 01:51:41;;;;;;;2.97;0.90;;;;;;;17.90;84.53;97023.50;5047812;28;20021;-67
2022/07/14 01:54:06;;;;;;;3.42;1.00;;;;;;;17.22;92.17;97015.56;5039240;28;20036;-66
2022/07/14 01:56:37;;;;;;;3.88;1.25;;;;;;;16.89;91.13;97012.16;5030587;28;20394;-66
2022/07/14 01:59:02;;;;;;;2.45;0.90;;;;;;;16.98;90.20;97006.97;5032014;28;20386;-67
2022/07/14 02:01:40;;;;;;;2.08;1.00;;;;;;;17.17;88.99;97011.22;5042236;28;20033;-66
2022/07/14 02:04:13;;;;;;;4.50;1.33;;;;;;;17.43;86.59;97017.44;5040711;28;20033;-67
2022/07/14 02:06:44;;;;;;;6.07;2.05;;;;;;;17.60;86.88;97009.44;5036009;28;20028;-66
2022/07/14 02:09:09;;;;;;;3.38;1.42;;;;;;;17.74;85.66;97010.13;5045558;28;20515;-69
2022/07/14 02:14:19;;;;;;;2.05;1.30;;;;;;;18.01;85.11;96998.47;5051567;28;20025;-66
2022/07/14 02:16:45;;;;;;;3.13;1.30;;;;;;;17.34;88.88;96992.97;5046259;28;20044;-69
2022/07/14 02:19:10;;;;;;;2.80;1.38;;;;;;;17.14;90.63;96989.09;5044641;28;20029;-67
2022/07/14 02:21:39;;;;;;;2.75;1.17;;;;;;;16.87;93.98;96980.53;5030918;28;20026;-67
2022/07/14 02:24:04;;;;;;;2.85;0.80;;;;;;;16.69;96.97;96981.38;5035459;28;20032;-68
2022/07/14 02:26:30;;;;;;;3.63;1.00;;;;;;;16.81;97.00;96997.50;5051666;28;20109;-69
2022/07/14 02:28:55;;;;;;;2.67;1.13;;;;;;;17.03;96.10;97003.00;5068629;28;20037;-67
2022/07/14 02:31:21;;;;;;;3.58;1.30;;;;;;;17.46;91.93;97018.59;5035395;28;20042;-69
2022/07/14 02:33:46;;;;;;;3.60;1.38;;;;;;;17.87;89.48;97027.06;5041124;28;20092;-71
2022/07/14 02:36:12;;;;;;;1.80;1.00;;;;;;;17.98;87.48;97028.97;5038737;28;20033;-69
2022/07/14 02:38:37;;;;;;;1.00;0.80;;;;;;;18.00;86.18;97021.03;5049828;28;20036;-67
2022/07/14 02:41:04;;;;;;;1.98;0.93;;;;;;;18.02;84.99;97024.97;5046198;28;20068;-67
2022/07/14 02:43:34;;;;;;;2.42;0.85;;;;;;;18.12;85.43;97012.22;5052162;28;20032;-66
2022/07/14 02:46:00;;;;;;;2.22;1.05;;;;;;;18.13;85.61;97011.03;5042045;28;20036;-66
2022/07/14 02:48:25;;;;;;;4.60;1.08;;;;;;;17.77;90.30;97017.63;5037901;28;20033;-70
2022/07/14 02:50:57;;;;;;;3.85;0.95;;;;;;;17.57;94.48;97008.25;5053459;28;20382;-67
2022/07/14 02:53:22;;;;;;;4.18;1.27;;;;;;;17.05;97.83;97002.59;5042908;28;20401;-66
2022/07/14 02:55:48;;;;;;;2.25;1.10;;;;;;;16.87;100.00;97002.66;5041160;28;20044;-66
2022/07/14 02:58:13;;;;;;;4.60;0.93;;;;;;;17.04;100.00;97009.31;5042262;28;20040;-68
2022/07/14 03:00:39;;;;;;;5.72;1.13;;;;;;;17.19;98.63;97006.06;5041725;28;20025;-69
2022/07/14 03:03:06;;;;;;;4.72;1.48;;;;;;;17.34;95.38;97014.31;5047782;28;20032;-66
2022/07/14 03:05:32;;;;;;;2.85;1.10;;;;;;;17.43;94.82;97006.38;5050738;28;20362;-67
2022/07/14 03:07:57;;;;;;;5.35;1.10;;;;;;;17.40;92.26;97004.41;5048546;28;20048;-69
2022/07/14 03:10:22;;;;;;;7.18;1.45;;;;;;;17.25;92.50;97009.22;5052377;28;20067;-67
2022/07/14 03:12:48;;;;;;;3.45;1.10;;;;;;;16.97;94.27;97002.63;5045757;28;20098;-68
2022/07/14 03:15:13;;;;;;;3.28;1.23;;;;;;;17.06;95.14;97001.41;5045030;28;20063;-67
2022/07/14 03:17:38;;;;;;;7.97;2.03;;;;;;;17.39;90.56;97002.81;5038998;28;20651;-66
2022/07/14 03:20:07;;;;;;;9.32;2.55;;;;;;;17.66;88.70;97002.25;5046472;28;20082;-66
2022/07/14 03:22:33;;;;;;;7.37;1.73;;;;;;;17.67;88.17;97001.06;5043162;28;20516;-67
2022/07/14 03:24:59;;;;;;;3.05;1.20;;;;;;;17.48;86.95;97010.66;5038975;28;20280;-66
2022/07/14 03:27:25;;;;;;;1.20;0.90;;;;;;;17.29;88.83;97012.75;5048726;28;20034;-66
2022/07/14 03:29:51;;;;;;;2.97;1.00;;;;;;;17.17;91.74;97005.69;5016113;28;20021;-67
2022/07/14 03:32:16;;;;;;;4.68;1.10;;;;;;;17.24;92.45;96998.56;5052215;28;20500;-67
2022/07/14 03:34:42;;;;;;;2.95;1.50;;;;;;;17.35;93.18;96994.53;5049198;28;20035;-68
2022/07/14 03:37:08;;;;;;;4.45;1.75;;;;;;;17.31;94.99;96998.53;5044640;28;20116;-67
2022/07/14 03:39:34;;;;;;;4.18;1.10;;;;;;;17.22;98.31;97000.94;5054375;28;20047;-68
2022/07/14 03:41:59;;;;;;;2.25;1.10;;;;;;;17.55;97.48;96989.25;5051477;28;20444;-68
2022/07/14 03:44:25;;;;;;;4.93;1.00;;;;;;;17.75;96.16;96989.53;5040542;28;20485;-68
2022/07/14 03:46:51;;;;;;;2.28;0.80;;;;;;;17.91;93.55;96996.56;5070657;28;20039;-69
2022/07/14 03:49:16;;;;;;;4.25;1.05;;;;;;;18.00;92.10;96999.66;5049679;28;20381;-67
2022/07/14 03:51:43;;;;;;;2.53;1.00;;;;;;;17.98;91.79;97010.34;5051661;28;20043;-68
2022/07/14 03:54:08;;;;;;;7.45;1.35;;;;;;;18.11;94.03;97018.97;5042514;28;20060;-66
2022/07/14 03:56:34;;;;;;;3.25;1.20;;;;;;;17.88;94.36;97000.13;5040530;28;20057;-67
2022/07/14 03:58:59;;;;;;;7.20;1.30;;;;;;;17.69;95.28;97004.22;5032793;28;20041;-65
2022/07/14 04:01:25;;;;;;;3.63;1.42;;;;;;;17.43;97.41;97024.94;5031582;28;20039;-68
2022/07/14 04:03:50;;;;;;;5.88;1.10;;;;;;;17.57;97.68;97025.66;5032746;28;20029;-68
2022/07/14 04:06:15;;;;;;;3.38;1.13;;;;;;;17.68;96.66;97022.81;5032275;28;20026;-67
2022/07/14 04:08:42;;;;;;;4.03;1.08;;;;;;;17.99;94.74;97036.88;5035994;28;20036;-67
2022/07/14 04:11:07;;;;;;;4.95;1.10;;;;;;;18.17;93.73;97033.97;5040998;28;20546;-69
2022/07/14 04:13:32;;;;;;;3.28;1.50;;;;;;;18.40;92.32;97029.78;5043459;28;20037;-66
2022/07/14 04:15:58;;;;;;;3.03;1.42;;;;;;;18.21;93.59;97031.94;5037136;28;20033;-66
2022/07/14 04:18:24;;;;;;;5.63;1.25;;;;;;;17.39;100.00;97028.53;5042568;28;20509;-70
2022/07/14 04:20:50;;;;;;;3.70;1.20;;;;;;;16.81;100.00;97033.47;5032453;28;20111;-69
2022/07/14 04:23:17;;;;;;;2.00;1.13;;;;;;;16.83;100.00;97019.28;5031075;28;20044;-69
2022/07/14 04:25:42;;;;;;;2.30;1.42;;;;;;;17.32;100.00;97017.50;5045173;28;20029;-69
2022/07/14 04:28:07;;;;;;;4.13;1.25;;;;;;;17.85;99.18;97014.78;5039623;28;20115;-69
2022/07/14 04:30:33;;;;;;;7.50;1.83;;;;;;;17.96;96.68;97015.53;5058112;28;20040;-69
2022/07/14 04:32:59;;;;;;;4.88;1.80;;;;;;;18.40;93.71;97004.84;5043616;28;20033;-69
2022/07/14 04:35:24;;;;;;;2.28;1.30;;;;;;;18.68;90.96;97009.31;5050153;28;20035;-76
2022/07/14 04:37:49;;;;;;;3.70;1.23;;;;;;;18.87;89.10;97014.28;5051668;28;20056;-68
2022/07/14 04:40:15;;;;;;;3.88;2.60;;;;;;;18.78;87.13;97013.16;5050210;28;20123;-69
2022/07/14 04:42:40;;;;;;;3.40;1.67;;;;;;;18.69;88.57;97008.09;5050756;28;20079;-69
2022/07/14 04:45:06;;;;;;;6.57;1.20;;;;;;;18.87;88.13;96999.59;5041894;28;20104;-68
2022/07/14 04:47:32;;;;;;;3.20;1.35;;;;;;;19.06;86.86;97006.53;5051610;28;20041;-67
2022/07/14 04:52:47;;;;;;;4.10;1.40;;;;;;;19.39;87.10;97004.91;5051978;28;20025;-67
2022/07/14 04:55:13;;;;;;;3.13;1.20;;;;;;;19.52;86.74;97004.34;5050439;28;20112;-67
2022/07/14 04:57:38;;;;;;;4.35;1.23;;;;;;;19.67;84.09;97025.16;5043323;28;20052;-69
2022/07/14 05:00:08;;;;;;;4.90;1.15;;;;;;;19.42;85.68;97015.19;5052723;28;20135;-69
2022/07/14 05:02:34;;;;;;;6.15;1.80;;;;;;;19.21;87.63;97013.50;5059065;28;20045;-67
2022/07/14 05:04:59;;;;;;;2.78;1.40;;;;;;;19.21;87.46;97019.03;5052279;28;20029;-67
2022/07/14 05:07:25;;;;;;;4.43;1.35;;;;;;;19.21;87.61;97016.28;5053029;28;20025;-69
2022/07/14 05:09:50;;;;;;;6.90;1.73;;;;;;;19.28;87.35;97023.69;5052821;28;20056;-66
2022/07/14 05:12:18;;;;;;;3.58;1.42;;;;;;;19.55;85.67;97028.50;5052329;28;20025;-67
2022/07/14 05:14:44;;;;;;;12.50;1.50;;;;;;;19.90;83.70;97034.75;5068062;28;20035;-68
2022/07/14 05:17:10;;;;;;;4.82;1.30;;;;;;;20.04;82.16;97023.44;5040475;28;20037;-70
2022/07/14 05:19:35;;;;;;;1.88;1.10;;;;;;;20.31;84.29;97019.81;5052407;28;20098;-70
2022/07/14 05:22:01;;;;;;;5.32;1.23;;;;;;;19.97;87.92;97012.41;5052806;28;20033;-67
2022/07/14 05:24:27;;;;;;;2.70;1.10;;;;;;;19.25;97.01;97016.22;5049961;28;20645;-68
2022/07/14 05:26:52;;;;;;;3.72;1.38;;;;;;;19.14;96.39;97023.88;5043823;28;20077;-66
2022/07/14 05:29:18;;;;;;;6.68;1.40;;;;;;;19.29;96.02;97041.94;5050992;28;20029;-68
2022/07/14 05:31:43;;;;;;;4.32;1.20;;;;;;;19.57;93.41;97057.47;5051441;28;20031;-69
2022/07/14 05:34:08;;;;;;;7.60;1.38;;;;;;;19.77;92.07;97065.13;5045339;28;20052;-68
2022/07/14 05:36:35;;;;;;;5.22;1.42;;;;;;;19.84;90.16;97051.13;5046311;28;20037;-69
2022/07/14 05:39:01;;;;;;;3.83;1.17;;;;;;;19.29;90.10;97023.28;5042748;28;20041;-70
2022/07/14 05:41:26;;;;;;;5.05;1.55;;;;;;;18.26;97.26;97019.66;5045006;28;20402;-70
2022/07/14 05:43:52;;;;;;;6.47;1.30;;;;;;;18.07;99.47;97027.31;5054687;28;20039;-68
2022/07/14 05:46:17;;;;;;;3.97;1.67;;;;;;;17.63;100.00;97039.06;5053813;28;20032;-67
2022/07/14 05:48:43;;;;;;;4.07;1.70;;;;;;;18.30;99.35;97032.25;5049173;28;20509;-65
2022/07/14 05:51:11;;;;;;;9.90;2.05;;;;;;;18.61;97.28;97017.72;5033972;28;20029;-65
2022/07/14 05:53:38;;;;;;;6.25;1.83;;;;;;;19.03;94.59;97010.94;5032048;28;20394;-67
2022/07/14 05:56:05;;;;;;;5.93;1.45;;;;;;;19.63;89.72;96991.88;5033155;28;20081;-68
2022/07/14 05:58:32;;;;;;;3.42;1.60;;;;;;;20.51;79.00;96983.69;5036664;28;20201;-68
2022/07/14 06:00:57;;;;;;;4.90;1.50;;;;;;;21.38;78.12;96980.78;5038513;28;20041;-68
2022/07/14 06:03:23;;;;;;;4.03;1.58;;;;;;;22.11;74.93;96977.91;5029690;28;20090;-68
2022/07/14 06:05:48;;;;;;;4.90;1.40;;;;;;;23.59;68.00;96981.03;5041176;28;20082;-65
2022/07/14 06:08:14;;;;;;;2.75;1.40;;;;;;;21.79;74.35;96978.69;5073792;28;20036;-66
2022/07/14 06:10:39;;;;;;;8.88;1.58;;;;;;;21.35;76.39;96993.56;5073235;28;20040;-69
2022/07/14 06:13:04;;;;;;;2.55;1.60;;;;;;;22.09;74.09;96994.28;5057321;28;20028;-67
2022/07/14 06:15:30;;;;;;;3.88;1.38;;;;;;;22.38;71.28;96983.22;5056026;28;20112;-67
2022/07/14 06:17:56;;;;;;;4.47;1.17;;;;;;;22.20;72.34;96974.50;5056962;28;20033;-66
2022/07/14 06:20:21;;;;;;;2.35;1.23;;;;;;;22.39;71.41;96973.63;5030226;28;20108;-64
2022/07/14 06:22:47;;;;;;;4.88;1.80;;;;;;;23.31;68.85;96967.91;5037909;28;20040;-65
2022/07/14 06:25:14;;;;;;;5.40;1.75;;;;;;;25.44;58.48;96985.53;5035973;28;20109;-65
2022/07/14 06:27:39;;;;;;;3.00;1.40;;;;;;;26.41;56.03;96990.06;5034607;28;20025;-64
2022/07/14 06:30:06;;;;;;;3.15;1.38;;;;;;;27.88;50.05;96979.91;5037240;28;20055;-65
2022/07/14 06:32:32;;;;;;;2.75;1.10;;;;;;;29.08;46.51;96981.94;5037331;28;20108;-65
2022/07/14 06:34:58;;;;;;;4.50;1.42;;;;;;;30.47;44.52;96992.38;5034982;28;20673;-64
2022/07/14 06:37:23;;;;;;;1.80;1.00;;;;;;;32.74;37.35;96983.81;5042461;28;20545;-63
2022/07/14 06:39:48;;;;;;;5.30;1.17;;;;;;;30.68;40.37;96979.03;5027538;28;20049;-64
2022/07/14 06:42:14;;;;;;;4.45;1.00;;;;;;;31.01;40.78;96986.38;5036420;28;20041;-65
2022/07/14 06:44:40;;;;;;;3.30;0.90;;;;;;;33.00;36.71;96980.00;5044763;28;20098;-64
2022/07/14 06:47:05;;;;;;;4.68;1.15;;;;;;;33.71;34.53;96986.34;5031002;28;20041;-65
2022/07/14 06:49:31;;;;;;;1.92;0.80;;;;;;;31.68;38.51;96979.78;5057488;28;20094;-65
2022/07/14 06:51:57;;;;;;;4.38;0.98;;;;;;;32.66;36.46;96979.91;5044110;28;20037;-65
2022/07/14 06:54:23;;;;;;;3.92;1.15;;;;;;;31.20;38.53;96980.38;5035333;28;20605;-65
2022/07/14 06:56:49;;;;;;;5.93;1.10;;;;;;;28.11;47.23;96974.78;5038272;28;20212;-65
2022/07/14 06:59:14;;;;;;;3.55;1.08;;;;;;;27.57;49.33;96978.16;5039030;28;20561;-65
2022/07/14 07:01:39;;;;;;;5.88;1.25;;;;;;;29.66;42.59;96981.66;5044372;28;20412;-64
2022/07/14 07:04:06;;;;;;;2.20;0.90;;;;;;;30.17;41.37;96979.63;5040005;28;20393;-66
2022/07/14 07:06:43;;;;;;;1.95;1.08;;;;;;;31.75;37.86;96992.72;5044917;28;20127;-65
2022/07/14 07:09:09;;;;;;;3.65;1.20;;;;;;;31.91;38.44;96989.25;5037974;28;20362;-66
2022/07/14 07:11:35;;;;;;;3.20;1.00;;;;;;;33.20;35.80;96984.72;5027242;28;20048;-67
2022/07/14 07:14:01;;;;;;;4.15;1.40;;;;;;;34.27;33.50;96988.34;5032635;28;20140;-67
2022/07/14 07:16:27;;;;;;;8.73;1.40;;;;;;;33.99;33.25;96993.28;5030270;28;20052;-65
2022/07/14 07:18:52;;;;;;;5.10;1.20;;;;;;;33.17;35.36;96997.88;5026032;28;20045;-66
2022/07/14 07:21:20;;;;;;;6.28;1.30;;;;;;;33.69;34.97;96982.47;5031822;28;20562;-66
2022/07/14 07:23:48;;;;;;;5.43;1.33;;;;;;;34.07;34.20;96977.28;5044040;28;20139;-66
2022/07/14 07:26:16;;;;;;;2.88;1.40;;;;;;;34.12;33.81;96979.31;5033894;28;20037;-66
2022/07/14 07:28:41;;;;;;;8.70;1.17;;;;;;;34.26;33.04;96968.97;5043715;28;20048;-67
2022/07/14 07:31:07;;;;;;;5.82;0.82;;;;;;;34.92;31.47;96972.09;5030226;28;20046;-63
2022/07/14 07:33:33;;;;;;;3.22;1.10;;;;;;;34.62;31.43;96972.72;5031766;28;20045;-64
2022/07/14 07:36:00;;;;;;;4.95;1.00;;;;;;;35.35;29.45;96977.28;5020769;28;20045;-64
2022/07/14 07:38:26;;;;;;;4.43;1.05;;;;;;;34.74;30.46;96973.47;5017795;28;20056;-66
2022/07/14 07:40:53;;;;;;;3.15;0.93;;;;;;;34.35;29.92;96971.53;5022251;28;20049;-65
2022/07/14 07:43:20;;;;;;;3.80;1.02;;;;;;;36.21;27.46;96966.72;5017276;28;20056;-64
2022/07/14 07:45:46;;;;;;;2.65;0.80;;;;;;;34.69;30.16;96964.94;5023221;28;20498;-66
2022/07/14 07:48:12;;;;;;;5.70;0.98;;;;;;;36.66;27.60;96963.38;5018548;28;20115;-66
2022/07/14 07:50:42;;;;;;;3.28;0.80;;;;;;;33.98;30.07;96954.78;5022110;28;20505;-65
2022/07/14 07:53:08;;;;;;;2.30;1.00;;;;;;;35.66;29.12;96961.00;5018411;28;20055;-63
2022/07/14 07:55:34;;;;;;;4.63;1.25;;;;;;;36.44;27.49;96947.28;5023594;28;20049;-66
2022/07/14 07:58:00;;;;;;;2.72;0.90;;;;;;;37.25;26.56;96949.34;5022189;28;20041;-65
2022/07/14 08:00:25;;;;;;;1.83;0.90;;;;;;;36.57;26.93;96955.16;5017818;28;20056;-66
2022/07/14 08:02:53;;;;;;;4.10;1.20;;;;;;;36.83;26.58;96954.59;5023607;28;20040;-64
2022/07/14 08:05:21;;;;;;;2.17;0.88;;;;;;;34.77;29.60;96951.75;5017785;28;20144;-65
2022/07/14 08:07:47;;;;;;;7.70;1.17;;;;;;;35.04;29.94;96945.13;5022521;28;20352;-65
2022/07/14 08:10:13;;;;;;;3.97;1.05;;;;;;;34.75;30.64;96940.13;5018170;28;20038;-65
2022/07/14 08:12:38;;;;;;;6.55;0.80;;;;;;;34.99;30.52;96945.16;5022948;28;20056;-64
2022/07/14 08:15:06;;;;;;;6.00;1.20;;;;;;;34.66;30.74;96933.41;5019527;28;20041;-63
2022/07/14 08:17:31;;;;;;;5.88;1.25;;;;;;;34.96;31.02;96927.06;5021964;28;20045;-63
2022/07/14 08:19:57;;;;;;;3.30;1.30;;;;;;;34.42;31.22;96927.56;5023763;28;20562;-66
2022/07/14 08:22:24;;;;;;;4.53;0.93;;;;;;;33.11;33.02;96923.28;5023083;28;20301;-64
2022/07/14 08:24:50;;;;;;;4.18;1.20;;;;;;;33.13;33.12;96915.84;5024734;28;20045;-64
2022/07/14 08:27:15;;;;;;;8.93;1.10;;;;;;;32.23;35.64;96917.59;5022295;28;20037;-65
2022/07/14 08:29:42;;;;;;;3.60;1.15;;;;;;;32.28;35.45;96923.28;5023161;28;20037;-65
2022/07/14 08:32:07;;;;;;;4.60;1.25;;;;;;;32.72;35.04;96910.59;5017344;28;20037;-64
2022/07/14 08:34:33;;;;;;;4.40;1.38;;;;;;;33.21;33.95;96918.19;5022689;28;20041;-65
2022/07/14 08:37:01;;;;;;;4.10;1.23;;;;;;;33.21;33.30;96913.28;5022097;28;20136;-64
2022/07/14 08:39:27;;;;;;;3.27;1.03;;;;;;;33.52;33.36;96911.47;5015372;28;20033;-64
2022/07/14 08:41:56;;;;;;;3.10;1.00;;;;;;;33.56;33.50;96908.34;5003743;28;20129;-65
2022/07/14 08:44:23;;;;;;;5.10;1.30;;;;;;;34.11;33.15;96905.97;5016071;28;20106;-65
2022/07/14 08:46:49;;;;;;;3.83;1.10;;;;;;;34.10;32.26;96902.34;5022629;28;20099;-65
2022/07/14 08:49:16;;;;;;;3.85;1.30;;;;;;;33.93;32.20;96905.22;5016720;28;20038;-64
2022/07/14 08:51:42;;;;;;;6.15;1.63;;;;;;;34.27;32.01;96902.31;5020677;28;20099;-65
2022/07/14 08:54:11;;;;;;;2.67;1.10;;;;;;;34.51;32.45;96901.69;5017606;28;20045;-66
2022/07/14 08:56:39;;;;;;;6.13;1.25;;;;;;;34.28;32.58;96901.00;5019931;28;20049;-66
2022/07/14 08:59:05;;;;;;;3.85;1.05;;;;;;;34.09;32.58;96897.97;5016670;28;20056;-62
2022/07/14 09:01:31;;;;;;;3.92;1.05;;;;;;;34.40;31.89;96898.91;5021028;28;20066;-64
2022/07/14 09:03:56;;;;;;;4.63;1.35;;;;;;;34.08;33.05;96904.94;5023048;28;20099;-65
2022/07/14 09:06:55;;;;;;;3.47;1.20;;;;;;;33.71;33.08;96901.16;5026338;28;20474;-64
2022/07/14 09:09:25;;;;;;;;;;;;;;;33.09;34.80;96897.50;5027309;28;20098;-64
2022/07/14 09:11:58;;;;;;;11.70;1.73;;;;;;;33.48;34.99;96893.91;5031434;28;19951;-64
2022/07/14 09:14:25;;;;;;;2.30;1.20;;;;;;;33.26;35.78;96889.81;5024418;28;20045;-64
2022/07/14 09:16:52;;;;;;;5.40;1.38;;;;;;;31.67;37.66;96898.19;5029938;28;20057;-66
2022/07/14 09:19:19;;;;;;;3.88;1.40;;;;;;;32.52;37.29;96894.53;5023716;28;20038;-64
2022/07/14 09:21:54;;;;;;;3.45;1.30;;;;;;;33.06;35.88;96887.16;5031974;28;20463;-64
2022/07/14 09:24:21;;;;;;;5.75;1.42;;;;;;;33.62;35.54;96881.50;5026141;28;20029;-64
2022/07/14 09:26:53;;;;;;;2.65;1.23;;;;;;;33.97;34.87;96885.84;5029613;28;20459;-64
2022/07/14 09:29:25;;;;;;;5.45;1.38;;;;;;;34.06;34.87;96873.41;5024191;28;20078;-64
2022/07/14 09:31:51;;;;;;;3.38;1.40;;;;;;;34.46;33.90;96874.03;5029343;28;20037;-64
2022/07/14 09:34:27;;;;;;;3.80;1.30;;;;;;;34.86;33.09;96871.75;5037122;28;20040;-63
2022/07/14 09:37:07;;;;;;;3.58;1.40;;;;;;;34.49;33.68;96867.31;5028757;28;20072;-64
2022/07/14 09:39:33;;;;;;;7.93;1.45;;;;;;;35.06;32.79;96867.75;5030892;28;20095;-64
2022/07/14 09:42:00;;;;;;;2.90;1.00;;;;;;;34.72;33.43;96870.03;5028677;28;20029;-64
2022/07/14 09:44:25;;;;;;;1.70;1.10;;;;;;;33.84;33.11;96857.22;5023342;28;20123;-64
2022/07/14 09:46:56;;;;;;;7.28;1.60;;;;;;;34.47;31.67;96864.22;5030782;28;20202;-65
2022/07/14 09:49:30;;;;;;;7.97;1.10;;;;;;;34.87;32.90;96855.47;5025517;28;20120;-63
2022/07/14 09:52:06;;;;;;;4.38;1.00;;;;;;;35.30;31.59;96861.38;5028942;28;20034;-63
2022/07/14 09:54:40;;;;;;;4.68;3.15;;;;;;;34.83;31.05;96865.06;5028554;28;20037;-64
2022/07/14 09:57:08;;;;;;;4.38;1.73;;;;;;;34.27;31.87;96857.59;5039862;28;20080;-64
2022/07/14 09:59:50;;;;;;;7.95;1.50;;;;;;;34.78;30.60;96860.19;5028388;28;20053;-64
2022/07/14 10:02:29;;;;;;;2.45;1.17;;;;;;;34.07;35.30;96858.69;5025995;28;20043;-63
2022/07/14 10:05:02;;;;;;;4.93;1.90;;;;;;;33.17;37.14;96852.38;5044885;28;20053;-65
2022/07/14 10:07:36;;;;;;;3.92;1.25;;;;;;;33.12;37.39;96854.69;5017237;28;20116;-66
2022/07/14 10:10:15;;;;;;;3.38;1.30;;;;;;;32.85;38.88;96853.38;5023323;28;20398;-65
2022/07/14 10:12:42;;;;;;;6.65;1.80;;;;;;;32.81;38.83;96852.06;5021318;28;20076;-65
2022/07/14 10:15:14;;;;;;;4.85;1.27;;;;;;;32.91;38.77;96850.53;5016284;28;20045;-65
2022/07/14 10:17:41;;;;;;;4.47;1.30;;;;;;;32.28;38.10;96854.50;5022001;28;20049;-65
2022/07/14 10:20:10;;;;;;;3.20;1.48;;;;;;;32.20;40.01;96854.22;5030576;28;20045;-65
2022/07/14 10:22:36;;;;;;;4.13;1.60;;;;;;;32.09;39.11;96854.16;5020463;28;20509;-65
2022/07/14 10:25:04;;;;;;;7.22;1.38;;;;;;;31.69;39.17;96853.94;5020293;28;20479;-63
2022/07/14 10:27:31;;;;;;;6.70;1.67;;;;;;;31.75;40.11;96846.25;5020377;28;20052;-64
2022/07/14 10:29:57;;;;;;;5.53;2.17;;;;;;;31.59;40.32;96842.03;5021946;28;20045;-64
2022/07/14 10:32:22;;;;;;;4.90;1.80;;;;;;;31.92;39.13;96843.50;5016341;28;20914;-65
2022/07/14 10:35:10;;;;;;;2.65;1.35;;;;;;;32.45;38.31;96841.16;5020478;28;20073;-66
2022/07/14 10:37:57;;;;;;;2.67;1.17;;;;;;;32.26;37.73;96840.06;5017622;28;20057;-63
2022/07/14 10:40:47;;;;;;;2.25;1.30;;;;;;;31.79;39.42;96837.53;5016303;28;20228;-63
2022/07/14 10:43:17;;;;;;;5.60;1.80;;;;;;;31.90;38.95;96833.97;5014464;28;20041;-63
2022/07/14 10:45:52;;;;;;;6.63;1.30;;;;;;;31.99;39.46;96822.44;5022825;28;20181;-64
2022/07/14 10:48:30;;;;;;;2.83;1.58;;;;;;;32.15;39.74;96816.06;5016881;28;20041;-64
2022/07/14 10:51:14;;;;;;;4.22;1.15;;;;;;;32.29;38.22;96817.16;5023641;28;20216;-64
2022/07/14 10:53:59;;;;;;;6.82;1.50;;;;;;;32.20;38.34;96812.50;5021216;28;20550;-64
2022/07/14 10:56:26;;;;;;;3.60;1.50;;;;;;;31.61;41.63;96816.84;5017924;28;20051;-65
2022/07/14 10:59:26;;;;;;;2.30;1.35;;;;;;;31.45;41.83;96806.94;5005630;28;20057;-64
2022/07/14 11:02:13;;;;;;;8.13;1.80;;;;;;;31.28;42.14;96817.38;5023510;28;20156;-64
2022/07/14 11:05:03;;;;;;;4.00;1.50;;;;;;;31.55;41.70;96807.56;5031404;28;20493;-65
2022/07/14 11:08:06;;;;;;;3.00;1.60;;;;;;;31.71;39.81;96808.94;5029321;28;20045;-64
2022/07/14 11:10:31;;;;;;;6.80;1.52;;;;;;;31.89;40.53;96807.72;5032464;28;20057;-64
2022/07/14 11:13:06;;;;;;;5.50;1.50;;;;;;;31.32;41.29;96811.50;5034617;28;20047;-64
2022/07/14 11:15:38;;;;;;;3.28;1.48;;;;;;;31.20;41.28;96796.47;5031622;28;20326;-64
2022/07/14 11:18:25;;;;;;;4.50;1.45;;;;;;;31.12;41.42;96793.34;5029446;28;20466;-65
2022/07/14 11:20:56;;;;;;;3.90;1.60;;;;;;;31.25;42.02;96787.25;5031361;28;20498;-65
2022/07/14 11:23:24;;;;;;;5.50;1.55;;;;;;;31.48;42.56;96782.56;5026948;28;20033;-64
2022/07/14 11:25:51;;;;;;;3.97;1.55;;;;;;;31.63;41.21;96785.97;5030709;28;20465;-65
2022/07/14 11:28:31;;;;;;;5.82;1.40;;;;;;;31.23;41.60;96779.28;5030698;28;20567;-64
2022/07/14 11:31:12;;;;;;;2.22;1.20;;;;;;;31.53;39.12;96781.00;5032591;28;20083;-64
2022/07/14 11:36:17;;;;;;;4.05;1.40;;;;;;;31.50;39.65;96782.06;5033435;28;20049;-64
2022/07/14 11:36:27;;;;;;;1.63;1.03;;;;;;;31.69;39.09;96788.03;5025507;28;20053;-64
2022/07/14 11:39:14;;;;;;;3.95;1.30;;;;;;;31.02;40.89;96780.66;5032866;28;20391;-65
2022/07/14 11:41:43;;;;;;;5.10;1.40;;;;;;;31.07;40.96;96774.28;5032488;28;20037;-64
2022/07/14 11:44:40;;;;;;;5.10;1.30;;;;;;;31.19;40.20;96773.09;5031228;28;20045;-67